sensor_id;sensor_type;location;lat;lon;timestamp;pressure;altitude;pressure_sealevel;temperature;humidity
64139;BME280;50435;43.700;-79.318;2023-04-08T00:01:20;101818.94;;;5.52;35.06
64139;BME280;50435;43.700;-79.318;2023-04-08T00:03:48;101820.07;;;7.28;35.38
64139;BME280;50435;43.700;-79.318;2023-04-08T00:06:15;101827.17;;;6.96;35.39
64139;BME280;50435;43.700;-79.318;2023-04-08T00:08:43;101831.12;;;6.90;35.75
64139;BME280;50435;43.700;-79.318;2023-04-08T00:11:10;101837.13;;;6.76;35.53
64139;BME280;50435;43.700;-79.318;2023-04-08T00:13:37;101835.09;;;6.76;35.80
64139;BME280;50435;43.700;-79.318;2023-04-08T00:16:04;101843.36;;;6.65;35.70
64139;BME280;50435;43.700;-79.318;2023-04-08T00:18:32;101847.69;;;6.52;35.95
64139;BME280;50435;43.700;-79.318;2023-04-08T00:20:59;101845.38;;;6.64;36.20
64139;BME280;50435;43.700;-79.318;2023-04-08T00:23:27;101848.43;;;6.64;35.85
64139;BME280;50435;43.700;-79.318;2023-04-08T00:25:54;101850.90;;;6.89;35.85
64139;BME280;50435;43.700;-79.318;2023-04-08T00:28:21;101856.43;;;5.81;36.55
64139;BME280;50435;43.700;-79.318;2023-04-08T00:30:48;101865.24;;;6.52;36.17
64139;BME280;50435;43.700;-79.318;2023-04-08T00:33:15;101868.79;;;4.98;36.65
64139;BME280;50435;43.700;-79.318;2023-04-08T00:35:42;101873.28;;;6.15;36.74
64139;BME280;50435;43.700;-79.318;2023-04-08T00:38:09;101873.13;;;5.96;36.93
64139;BME280;50435;43.700;-79.318;2023-04-08T00:40:37;101882.39;;;5.78;37.04
64139;BME280;50435;43.700;-79.318;2023-04-08T00:43:04;101888.75;;;6.00;37.19
64139;BME280;50435;43.700;-79.318;2023-04-08T00:45:32;101896.09;;;5.60;37.32
64139;BME280;50435;43.700;-79.318;2023-04-08T00:48:00;101893.47;;;6.31;37.28
64139;BME280;50435;43.700;-79.318;2023-04-08T00:50:27;101898.23;;;5.71;36.99
64139;BME280;50435;43.700;-79.318;2023-04-08T00:52:54;101895.89;;;6.07;37.09
64139;BME280;50435;43.700;-79.318;2023-04-08T00:55:22;101891.10;;;4.79;37.22
64139;BME280;50435;43.700;-79.318;2023-04-08T00:57:50;101892.54;;;5.69;37.79
64139;BME280;50435;43.700;-79.318;2023-04-08T01:00:17;101890.11;;;4.21;37.51
64139;BME280;50435;43.700;-79.318;2023-04-08T01:02:49;101887.23;;;5.86;37.37
64139;BME280;50435;43.700;-79.318;2023-04-08T01:05:24;101892.71;;;4.21;37.36
64139;BME280;50435;43.700;-79.318;2023-04-08T01:07:53;101899.03;;;5.71;37.64
64139;BME280;50435;43.700;-79.318;2023-04-08T01:10:25;101903.66;;;4.23;37.47
64139;BME280;50435;43.700;-79.318;2023-04-08T01:12:56;101906.68;;;5.62;37.51
64139;BME280;50435;43.700;-79.318;2023-04-08T01:15:26;101914.90;;;4.80;37.43
64139;BME280;50435;43.700;-79.318;2023-04-08T01:17:56;101922.37;;;5.52;37.42
64139;BME280;50435;43.700;-79.318;2023-04-08T01:20:26;101918.27;;;4.69;37.48
64139;BME280;50435;43.700;-79.318;2023-04-08T01:23:04;101925.21;;;5.62;37.65
64139;BME280;50435;43.700;-79.318;2023-04-08T01:25:35;101928.65;;;4.79;38.06
64139;BME280;50435;43.700;-79.318;2023-04-08T01:28:05;101929.46;;;5.56;37.57
64139;BME280;50435;43.700;-79.318;2023-04-08T01:30:33;101937.72;;;5.06;37.50
64139;BME280;50435;43.700;-79.318;2023-04-08T01:33:03;101939.64;;;5.48;37.99
64139;BME280;50435;43.700;-79.318;2023-04-08T01:35:31;101946.09;;;5.04;37.84
64139;BME280;50435;43.700;-79.318;2023-04-08T01:37:59;101949.96;;;5.52;38.01
64139;BME280;50435;43.700;-79.318;2023-04-08T01:40:29;101954.41;;;4.84;38.13
64139;BME280;50435;43.700;-79.318;2023-04-08T01:42:57;101954.61;;;4.92;38.27
64139;BME280;50435;43.700;-79.318;2023-04-08T01:45:25;101956.78;;;4.80;38.21
64139;BME280;50435;43.700;-79.318;2023-04-08T01:47:55;101952.89;;;5.03;38.37
64139;BME280;50435;43.700;-79.318;2023-04-08T01:50:25;101959.75;;;4.70;38.20
64139;BME280;50435;43.700;-79.318;2023-04-08T01:52:53;101965.04;;;4.84;38.66
64139;BME280;50435;43.700;-79.318;2023-04-08T01:55:21;101968.40;;;3.06;38.45
64139;BME280;50435;43.700;-79.318;2023-04-08T01:57:51;101965.04;;;4.78;38.71
64139;BME280;50435;43.700;-79.318;2023-04-08T02:00:23;101965.80;;;3.41;38.53
64139;BME280;50435;43.700;-79.318;2023-04-08T02:02:52;101958.62;;;4.50;38.55
64139;BME280;50435;43.700;-79.318;2023-04-08T02:05:20;101971.93;;;3.20;38.79
64139;BME280;50435;43.700;-79.318;2023-04-08T02:07:48;101973.57;;;4.16;39.21
64139;BME280;50435;43.700;-79.318;2023-04-08T02:10:15;101969.96;;;3.00;39.39
64139;BME280;50435;43.700;-79.318;2023-04-08T02:12:43;101978.39;;;4.24;38.67
64139;BME280;50435;43.700;-79.318;2023-04-08T02:15:11;101972.60;;;3.82;38.60
64139;BME280;50435;43.700;-79.318;2023-04-08T02:17:43;101967.08;;;4.43;38.91
64139;BME280;50435;43.700;-79.318;2023-04-08T02:20:16;101963.53;;;3.95;38.92
64139;BME280;50435;43.700;-79.318;2023-04-08T02:22:47;101966.97;;;4.20;39.20
64139;BME280;50435;43.700;-79.318;2023-04-08T02:25:16;101968.68;;;2.96;39.32
64139;BME280;50435;43.700;-79.318;2023-04-08T02:27:48;101971.90;;;3.81;39.28
64139;BME280;50435;43.700;-79.318;2023-04-08T02:30:16;101975.13;;;2.47;39.61
64139;BME280;50435;43.700;-79.318;2023-04-08T02:32:44;101970.38;;;4.05;39.09
64139;BME280;50435;43.700;-79.318;2023-04-08T02:35:14;101982.46;;;3.02;39.27
64139;BME280;50435;43.700;-79.318;2023-04-08T02:37:45;101975.65;;;3.85;39.40
64139;BME280;50435;43.700;-79.318;2023-04-08T02:40:30;101974.21;;;2.87;39.46
64139;BME280;50435;43.700;-79.318;2023-04-08T02:42:58;101974.69;;;3.99;39.57
64139;BME280;50435;43.700;-79.318;2023-04-08T02:45:29;101973.04;;;3.12;39.71
64139;BME280;50435;43.700;-79.318;2023-04-08T02:47:57;101975.40;;;3.71;39.46
64139;BME280;50435;43.700;-79.318;2023-04-08T02:50:24;101979.47;;;3.14;39.70
64139;BME280;50435;43.700;-79.318;2023-04-08T02:52:52;101978.70;;;3.52;39.50
64139;BME280;50435;43.700;-79.318;2023-04-08T02:55:19;101986.21;;;2.88;39.92
64139;BME280;50435;43.700;-79.318;2023-04-08T02:57:47;101985.50;;;3.22;39.97
64139;BME280;50435;43.700;-79.318;2023-04-08T03:00:15;101979.73;;;2.47;39.77
64139;BME280;50435;43.700;-79.318;2023-04-08T03:02:43;101979.78;;;3.56;39.85
64139;BME280;50435;43.700;-79.318;2023-04-08T03:05:11;101977.76;;;2.77;40.00
64139;BME280;50435;43.700;-79.318;2023-04-08T03:07:38;101980.94;;;3.13;40.03
64139;BME280;50435;43.700;-79.318;2023-04-08T03:10:07;101991.06;;;3.75;39.94
64139;BME280;50435;43.700;-79.318;2023-04-08T03:12:35;101991.41;;;2.95;40.34
64139;BME280;50435;43.700;-79.318;2023-04-08T03:15:02;101990.12;;;3.18;40.30
64139;BME280;50435;43.700;-79.318;2023-04-08T03:17:29;101988.01;;;3.06;40.08
64139;BME280;50435;43.700;-79.318;2023-04-08T03:19:56;101995.36;;;3.56;39.98
64139;BME280;50435;43.700;-79.318;2023-04-08T03:22:24;101993.16;;;2.30;40.50
64139;BME280;50435;43.700;-79.318;2023-04-08T03:24:52;101997.27;;;2.75;40.41
64139;BME280;50435;43.700;-79.318;2023-04-08T03:27:19;101994.72;;;1.56;40.28
64139;BME280;50435;43.700;-79.318;2023-04-08T03:29:46;101997.03;;;3.30;40.27
64139;BME280;50435;43.700;-79.318;2023-04-08T03:32:13;101995.55;;;1.84;40.63
64139;BME280;50435;43.700;-79.318;2023-04-08T03:34:41;101996.37;;;2.79;40.63
64139;BME280;50435;43.700;-79.318;2023-04-08T03:37:08;101997.21;;;3.13;40.74
64139;BME280;50435;43.700;-79.318;2023-04-08T03:39:35;101993.63;;;2.74;41.02
64139;BME280;50435;43.700;-79.318;2023-04-08T03:42:03;101996.18;;;2.73;41.01
64139;BME280;50435;43.700;-79.318;2023-04-08T03:44:30;101999.49;;;2.44;41.03
64139;BME280;50435;43.700;-79.318;2023-04-08T03:46:57;101993.04;;;2.74;40.94
64139;BME280;50435;43.700;-79.318;2023-04-08T03:49:25;101997.78;;;2.11;40.76
64139;BME280;50435;43.700;-79.318;2023-04-08T03:51:52;101995.91;;;2.73;40.96
64139;BME280;50435;43.700;-79.318;2023-04-08T03:54:19;102004.66;;;2.75;40.79
64139;BME280;50435;43.700;-79.318;2023-04-08T03:56:47;102011.30;;;2.55;41.13
64139;BME280;50435;43.700;-79.318;2023-04-08T03:59:15;102010.20;;;1.24;40.94
64139;BME280;50435;43.700;-79.318;2023-04-08T04:01:42;102013.21;;;2.72;40.78
64139;BME280;50435;43.700;-79.318;2023-04-08T04:04:09;102015.53;;;2.52;41.07
64139;BME280;50435;43.700;-79.318;2023-04-08T04:06:36;102013.82;;;2.37;41.26
64139;BME280;50435;43.700;-79.318;2023-04-08T04:09:04;102015.36;;;2.71;41.43
64139;BME280;50435;43.700;-79.318;2023-04-08T04:11:33;102018.13;;;2.01;41.78
64139;BME280;50435;43.700;-79.318;2023-04-08T04:14:00;102012.19;;;2.05;41.62
64139;BME280;50435;43.700;-79.318;2023-04-08T04:16:27;102014.61;;;2.09;41.57
64139;BME280;50435;43.700;-79.318;2023-04-08T04:18:55;102020.71;;;2.20;41.37
64139;BME280;50435;43.700;-79.318;2023-04-08T04:21:22;102013.79;;;1.72;41.30
64139;BME280;50435;43.700;-79.318;2023-04-08T04:23:50;102019.79;;;2.44;41.20
64139;BME280;50435;43.700;-79.318;2023-04-08T04:26:17;102024.99;;;0.64;41.54
64139;BME280;50435;43.700;-79.318;2023-04-08T04:28:44;102027.65;;;1.93;41.67
64139;BME280;50435;43.700;-79.318;2023-04-08T04:31:18;102027.64;;;1.52;41.43
64139;BME280;50435;43.700;-79.318;2023-04-08T04:33:45;102019.58;;;2.40;41.16
64139;BME280;50435;43.700;-79.318;2023-04-08T04:36:12;102018.01;;;1.48;41.01
64139;BME280;50435;43.700;-79.318;2023-04-08T04:38:40;102019.90;;;2.22;40.96
64139;BME280;50435;43.700;-79.318;2023-04-08T04:41:07;102024.07;;;2.36;41.02
64139;BME280;50435;43.700;-79.318;2023-04-08T04:43:34;102028.51;;;1.99;41.28
64139;BME280;50435;43.700;-79.318;2023-04-08T04:46:02;102027.48;;;2.57;41.02
64139;BME280;50435;43.700;-79.318;2023-04-08T04:48:29;102025.81;;;1.98;41.19
64139;BME280;50435;43.700;-79.318;2023-04-08T04:50:57;102022.36;;;2.36;41.31
64139;BME280;50435;43.700;-79.318;2023-04-08T04:53:25;102032.13;;;1.55;41.13
64139;BME280;50435;43.700;-79.318;2023-04-08T04:55:53;102036.08;;;2.11;41.36
64139;BME280;50435;43.700;-79.318;2023-04-08T04:58:20;102037.26;;;0.52;41.89
64139;BME280;50435;43.700;-79.318;2023-04-08T05:00:47;102035.11;;;1.80;41.45
64139;BME280;50435;43.700;-79.318;2023-04-08T05:03:15;102032.68;;;0.83;41.24
64139;BME280;50435;43.700;-79.318;2023-04-08T05:05:42;102029.97;;;2.12;41.12
64139;BME280;50435;43.700;-79.318;2023-04-08T05:08:09;102028.90;;;2.18;41.40
64139;BME280;50435;43.700;-79.318;2023-04-08T05:10:38;102027.01;;;1.57;41.48
64139;BME280;50435;43.700;-79.318;2023-04-08T05:13:07;102027.60;;;1.88;41.38
64139;BME280;50435;43.700;-79.318;2023-04-08T05:15:34;102028.36;;;1.93;41.35
64139;BME280;50435;43.700;-79.318;2023-04-08T05:18:01;102030.84;;;1.94;41.65
64139;BME280;50435;43.700;-79.318;2023-04-08T05:20:29;102036.18;;;1.46;41.62
64139;BME280;50435;43.700;-79.318;2023-04-08T05:22:56;102034.30;;;1.61;41.31
64139;BME280;50435;43.700;-79.318;2023-04-08T05:25:24;102030.30;;;1.43;41.31
64139;BME280;50435;43.700;-79.318;2023-04-08T05:27:51;102031.21;;;1.65;41.46
64139;BME280;50435;43.700;-79.318;2023-04-08T05:30:19;102030.94;;;0.36;41.69
64139;BME280;50435;43.700;-79.318;2023-04-08T05:32:46;102037.38;;;1.77;41.31
64139;BME280;50435;43.700;-79.318;2023-04-08T05:35:13;102033.10;;;0.95;41.30
64139;BME280;50435;43.700;-79.318;2023-04-08T05:37:41;102032.73;;;1.42;41.39
64139;BME280;50435;43.700;-79.318;2023-04-08T05:40:09;102034.71;;;1.74;41.63
64139;BME280;50435;43.700;-79.318;2023-04-08T05:42:36;102032.70;;;1.07;41.77
64139;BME280;50435;43.700;-79.318;2023-04-08T05:45:05;102030.61;;;1.74;41.51
64139;BME280;50435;43.700;-79.318;2023-04-08T05:47:32;102031.53;;;1.58;41.49
64139;BME280;50435;43.700;-79.318;2023-04-08T05:49:59;102033.42;;;1.76;41.55
64139;BME280;50435;43.700;-79.318;2023-04-08T05:52:26;102032.69;;;0.80;41.85
64139;BME280;50435;43.700;-79.318;2023-04-08T05:54:54;102033.94;;;1.55;41.82
64139;BME280;50435;43.700;-79.318;2023-04-08T05:57:21;102030.03;;;0.73;41.94
64139;BME280;50435;43.700;-79.318;2023-04-08T05:59:48;102029.31;;;1.69;41.55
64139;BME280;50435;43.700;-79.318;2023-04-08T06:02:16;102029.99;;;0.07;41.85
64139;BME280;50435;43.700;-79.318;2023-04-08T06:04:43;102032.44;;;1.67;41.52
64139;BME280;50435;43.700;-79.318;2023-04-08T06:07:11;102038.90;;;0.80;41.71
64139;BME280;50435;43.700;-79.318;2023-04-08T06:09:38;102039.28;;;1.25;41.72
64139;BME280;50435;43.700;-79.318;2023-04-08T06:12:05;102041.60;;;1.53;41.61
64139;BME280;50435;43.700;-79.318;2023-04-08T06:14:33;102043.79;;;1.39;41.91
64139;BME280;50435;43.700;-79.318;2023-04-08T06:17:00;102043.39;;;1.74;41.96
64139;BME280;50435;43.700;-79.318;2023-04-08T06:19:27;102043.49;;;0.50;42.38
64139;BME280;50435;43.700;-79.318;2023-04-08T06:21:55;102040.62;;;0.93;42.57
64139;BME280;50435;43.700;-79.318;2023-04-08T06:24:22;102040.95;;;0.70;42.07
64139;BME280;50435;43.700;-79.318;2023-04-08T06:26:49;102043.40;;;1.28;42.18
64139;BME280;50435;43.700;-79.318;2023-04-08T06:29:17;102039.49;;;0.20;42.09
64139;BME280;50435;43.700;-79.318;2023-04-08T06:31:44;102043.63;;;1.14;42.04
64139;BME280;50435;43.700;-79.318;2023-04-08T06:34:11;102044.50;;;0.66;42.01
64139;BME280;50435;43.700;-79.318;2023-04-08T06:36:39;102045.91;;;1.26;42.53
64139;BME280;50435;43.700;-79.318;2023-04-08T06:39:06;102048.00;;;0.93;42.71
64139;BME280;50435;43.700;-79.318;2023-04-08T06:41:33;102052.02;;;0.83;42.50
64139;BME280;50435;43.700;-79.318;2023-04-08T06:44:01;102051.95;;;0.97;42.31
64139;BME280;50435;43.700;-79.318;2023-04-08T06:46:28;102054.92;;;0.95;42.19
64139;BME280;50435;43.700;-79.318;2023-04-08T06:48:56;102057.72;;;0.96;42.21
64139;BME280;50435;43.700;-79.318;2023-04-08T06:51:23;102055.38;;;0.60;41.92
64139;BME280;50435;43.700;-79.318;2023-04-08T06:53:50;102054.79;;;1.07;42.06
64139;BME280;50435;43.700;-79.318;2023-04-08T06:56:18;102058.83;;;-0.37;41.99
64139;BME280;50435;43.700;-79.318;2023-04-08T06:58:45;102060.37;;;0.96;42.24
64139;BME280;50435;43.700;-79.318;2023-04-08T07:01:12;102071.79;;;0.20;42.03
64139;BME280;50435;43.700;-79.318;2023-04-08T07:03:40;102074.03;;;0.73;42.09
64139;BME280;50435;43.700;-79.318;2023-04-08T07:06:07;102073.32;;;1.19;41.99
64139;BME280;50435;43.700;-79.318;2023-04-08T07:08:34;102076.29;;;0.72;42.06
64139;BME280;50435;43.700;-79.318;2023-04-08T07:11:02;102070.32;;;1.28;41.81
64139;BME280;50435;43.700;-79.318;2023-04-08T07:13:29;102069.03;;;0.59;41.79
64139;BME280;50435;43.700;-79.318;2023-04-08T07:15:57;102076.41;;;0.84;42.24
64139;BME280;50435;43.700;-79.318;2023-04-08T07:18:24;102073.65;;;0.72;41.79
64139;BME280;50435;43.700;-79.318;2023-04-08T07:20:52;102077.95;;;0.78;42.31
64139;BME280;50435;43.700;-79.318;2023-04-08T07:23:20;102079.05;;;-0.19;42.52
64139;BME280;50435;43.700;-79.318;2023-04-08T07:25:48;102083.73;;;0.86;42.28
64139;BME280;50435;43.700;-79.318;2023-04-08T07:28:16;102080.46;;;-0.29;42.18
64139;BME280;50435;43.700;-79.318;2023-04-08T07:30:43;102083.45;;;0.66;41.86
64139;BME280;50435;43.700;-79.318;2023-04-08T07:33:11;102080.89;;;-1.14;41.65
64139;BME280;50435;43.700;-79.318;2023-04-08T07:35:38;102079.50;;;1.13;40.58
64139;BME280;50435;43.700;-79.318;2023-04-08T07:38:06;102078.76;;;1.39;40.92
64139;BME280;50435;43.700;-79.318;2023-04-08T07:40:33;102075.26;;;0.82;40.40
64139;BME280;50435;43.700;-79.318;2023-04-08T07:43:00;102076.09;;;1.50;39.90
64139;BME280;50435;43.700;-79.318;2023-04-08T07:45:28;102077.80;;;0.32;40.22
64139;BME280;50435;43.700;-79.318;2023-04-08T07:47:55;102079.98;;;1.50;40.05
64139;BME280;50435;43.700;-79.318;2023-04-08T07:50:22;102083.11;;;1.49;39.78
64139;BME280;50435;43.700;-79.318;2023-04-08T07:52:50;102078.35;;;0.54;40.42
64139;BME280;50435;43.700;-79.318;2023-04-08T07:55:17;102078.89;;;1.03;40.32
64139;BME280;50435;43.700;-79.318;2023-04-08T07:57:45;102075.91;;;-0.12;40.04
64139;BME280;50435;43.700;-79.318;2023-04-08T08:00:13;102081.95;;;-0.73;39.18
64139;BME280;50435;43.700;-79.318;2023-04-08T08:02:40;102081.30;;;-0.16;38.04
64139;BME280;50435;43.700;-79.318;2023-04-08T08:05:08;102084.94;;;1.98;37.43
64139;BME280;50435;43.700;-79.318;2023-04-08T08:07:35;102094.54;;;1.99;38.55
64139;BME280;50435;43.700;-79.318;2023-04-08T08:10:03;102091.56;;;0.28;39.80
64139;BME280;50435;43.700;-79.318;2023-04-08T08:12:30;102097.40;;;-0.86;38.59
64139;BME280;50435;43.700;-79.318;2023-04-08T08:14:57;102095.03;;;-0.52;37.26
64139;BME280;50435;43.700;-79.318;2023-04-08T08:17:25;102093.40;;;-0.28;36.73
64139;BME280;50435;43.700;-79.318;2023-04-08T08:19:52;102095.60;;;0.24;36.29
64139;BME280;50435;43.700;-79.318;2023-04-08T08:22:19;102104.98;;;2.40;36.49
64139;BME280;50435;43.700;-79.318;2023-04-08T08:24:47;102107.12;;;1.79;38.47
64139;BME280;50435;43.700;-79.318;2023-04-08T08:27:14;102109.46;;;0.15;39.64
64139;BME280;50435;43.700;-79.318;2023-04-08T08:29:42;102114.62;;;1.09;40.45
64139;BME280;50435;43.700;-79.318;2023-04-08T08:32:10;102116.38;;;0.22;40.43
64139;BME280;50435;43.700;-79.318;2023-04-08T08:34:37;102108.98;;;1.10;40.38
64139;BME280;50435;43.700;-79.318;2023-04-08T08:37:05;102110.66;;;0.94;40.56
64139;BME280;50435;43.700;-79.318;2023-04-08T08:39:32;102108.79;;;0.90;40.90
64139;BME280;50435;43.700;-79.318;2023-04-08T08:41:59;102110.69;;;1.12;40.69
64139;BME280;50435;43.700;-79.318;2023-04-08T08:44:27;102110.68;;;0.49;41.09
64139;BME280;50435;43.700;-79.318;2023-04-08T08:46:56;102112.08;;;-1.81;40.89
64139;BME280;50435;43.700;-79.318;2023-04-08T08:49:24;102113.00;;;-1.39;40.09
64139;BME280;50435;43.700;-79.318;2023-04-08T08:51:52;102110.84;;;-1.16;39.63
64139;BME280;50435;43.700;-79.318;2023-04-08T08:54:21;102112.37;;;-0.61;39.80
64139;BME280;50435;43.700;-79.318;2023-04-08T08:56:49;102113.11;;;0.58;40.55
64139;BME280;50435;43.700;-79.318;2023-04-08T08:59:16;102117.01;;;-0.74;41.15
64139;BME280;50435;43.700;-79.318;2023-04-08T09:01:43;102119.08;;;-1.69;41.93
64139;BME280;50435;43.700;-79.318;2023-04-08T09:04:13;102120.39;;;-2.12;41.59
64139;BME280;50435;43.700;-79.318;2023-04-08T09:06:41;102117.44;;;-1.00;38.98
64139;BME280;50435;43.700;-79.318;2023-04-08T09:09:09;102113.94;;;-0.59;38.10
64139;BME280;50435;43.700;-79.318;2023-04-08T09:11:37;102114.50;;;1.56;38.80
64139;BME280;50435;43.700;-79.318;2023-04-08T09:14:07;102116.65;;;-1.20;40.12
64139;BME280;50435;43.700;-79.318;2023-04-08T09:16:43;102115.99;;;-0.96;38.67
64139;BME280;50435;43.700;-79.318;2023-04-08T09:19:11;102113.23;;;-0.51;37.80
64139;BME280;50435;43.700;-79.318;2023-04-08T09:21:39;102108.58;;;-0.23;37.06
64139;BME280;50435;43.700;-79.318;2023-04-08T09:24:07;102113.13;;;-0.76;36.96
64139;BME280;50435;43.700;-79.318;2023-04-08T09:26:36;102116.74;;;-0.63;36.64
64139;BME280;50435;43.700;-79.318;2023-04-08T09:29:06;102121.53;;;-0.11;36.95
64139;BME280;50435;43.700;-79.318;2023-04-08T09:31:36;102123.00;;;-0.45;37.10
64139;BME280;50435;43.700;-79.318;2023-04-08T09:34:09;102120.52;;;-0.13;36.64
64139;BME280;50435;43.700;-79.318;2023-04-08T09:36:37;102128.67;;;-0.62;36.88
64139;BME280;50435;43.700;-79.318;2023-04-08T09:39:05;102133.65;;;-0.50;36.91
64139;BME280;50435;43.700;-79.318;2023-04-08T09:41:34;102137.88;;;-1.00;37.35
64139;BME280;50435;43.700;-79.318;2023-04-08T09:44:03;102137.17;;;-0.37;37.81
64139;BME280;50435;43.700;-79.318;2023-04-08T09:46:35;102137.74;;;0.28;38.07
64139;BME280;50435;43.700;-79.318;2023-04-08T09:49:08;102138.60;;;-0.39;38.78
64139;BME280;50435;43.700;-79.318;2023-04-08T09:51:41;102140.94;;;-0.08;38.03
64139;BME280;50435;43.700;-79.318;2023-04-08T09:54:13;102143.58;;;-0.20;38.12
64139;BME280;50435;43.700;-79.318;2023-04-08T09:56:46;102146.23;;;0.79;38.24
64139;BME280;50435;43.700;-79.318;2023-04-08T09:59:14;102143.70;;;1.23;38.42
64139;BME280;50435;43.700;-79.318;2023-04-08T10:01:47;102149.03;;;0.64;39.91
64139;BME280;50435;43.700;-79.318;2023-04-08T10:04:19;102155.82;;;0.37;40.28
64139;BME280;50435;43.700;-79.318;2023-04-08T10:06:47;102162.32;;;0.00;41.97
64139;BME280;50435;43.700;-79.318;2023-04-08T10:09:17;102163.75;;;-0.74;42.74
64139;BME280;50435;43.700;-79.318;2023-04-08T10:11:45;102165.76;;;-0.36;43.39
64139;BME280;50435;43.700;-79.318;2023-04-08T10:14:13;102169.34;;;-1.38;43.27
64139;BME280;50435;43.700;-79.318;2023-04-08T10:16:40;102165.26;;;-0.45;43.54
64139;BME280;50435;43.700;-79.318;2023-04-08T10:19:35;102164.17;;;-1.97;43.88
64139;BME280;50435;43.700;-79.318;2023-04-08T10:22:04;102161.34;;;-1.09;43.57
64139;BME280;50435;43.700;-79.318;2023-04-08T10:25:29;102166.21;;;-2.30;43.97
64139;BME280;50435;43.700;-79.318;2023-04-08T10:27:57;102164.67;;;-2.01;43.70
64139;BME280;50435;43.700;-79.318;2023-04-08T10:30:41;102157.43;;;-0.47;42.46
64139;BME280;50435;43.700;-79.318;2023-04-08T10:33:10;102155.75;;;-1.03;41.91
64139;BME280;50435;43.700;-79.318;2023-04-08T10:35:41;102156.13;;;-0.31;42.07
64139;BME280;50435;43.700;-79.318;2023-04-08T10:38:09;102153.60;;;-1.19;42.06
64139;BME280;50435;43.700;-79.318;2023-04-08T10:40:37;102152.74;;;-0.52;41.56
64139;BME280;50435;43.700;-79.318;2023-04-08T10:43:04;102156.02;;;0.44;41.57
64139;BME280;50435;43.700;-79.318;2023-04-08T10:45:32;102159.12;;;-0.66;41.64
64139;BME280;50435;43.700;-79.318;2023-04-08T10:48:12;102164.62;;;-0.09;42.18
64139;BME280;50435;43.700;-79.318;2023-04-08T10:50:39;102162.87;;;-2.52;41.50
64139;BME280;50435;43.700;-79.318;2023-04-08T10:53:06;102165.69;;;0.31;41.07
64139;BME280;50435;43.700;-79.318;2023-04-08T10:55:34;102166.19;;;-1.03;41.58
64139;BME280;50435;43.700;-79.318;2023-04-08T10:58:09;102171.11;;;0.10;41.98
64139;BME280;50435;43.700;-79.318;2023-04-08T11:00:38;102171.64;;;-1.10;41.81
64139;BME280;50435;43.700;-79.318;2023-04-08T11:03:07;102171.30;;;-0.16;42.16
64139;BME280;50435;43.700;-79.318;2023-04-08T11:05:35;102173.39;;;-1.86;42.50
64139;BME280;50435;43.700;-79.318;2023-04-08T11:08:04;102175.77;;;-0.70;43.46
64139;BME280;50435;43.700;-79.318;2023-04-08T11:10:36;102175.12;;;-1.74;43.91
64139;BME280;50435;43.700;-79.318;2023-04-08T11:13:06;102176.53;;;-0.52;43.61
64139;BME280;50435;43.700;-79.318;2023-04-08T11:15:35;102178.99;;;-2.38;44.40
64139;BME280;50435;43.700;-79.318;2023-04-08T11:18:03;102182.81;;;-1.17;44.21
64139;BME280;50435;43.700;-79.318;2023-04-08T11:20:32;102187.59;;;-1.05;43.94
64139;BME280;50435;43.700;-79.318;2023-04-08T11:22:59;102193.34;;;-1.01;44.08
64139;BME280;50435;43.700;-79.318;2023-04-08T11:25:27;102196.56;;;-0.62;44.00
64139;BME280;50435;43.700;-79.318;2023-04-08T11:27:55;102201.99;;;-0.80;44.40
64139;BME280;50435;43.700;-79.318;2023-04-08T11:30:22;102206.78;;;-1.03;44.26
64139;BME280;50435;43.700;-79.318;2023-04-08T11:32:51;102205.61;;;-1.18;44.13
64139;BME280;50435;43.700;-79.318;2023-04-08T11:35:19;102207.80;;;-0.75;44.21
64139;BME280;50435;43.700;-79.318;2023-04-08T11:37:47;102212.75;;;-1.24;44.63
64139;BME280;50435;43.700;-79.318;2023-04-08T11:40:20;102217.12;;;-0.79;44.51
64139;BME280;50435;43.700;-79.318;2023-04-08T11:42:47;102220.08;;;-1.05;44.00
64139;BME280;50435;43.700;-79.318;2023-04-08T11:45:16;102216.51;;;-0.74;43.98
64139;BME280;50435;43.700;-79.318;2023-04-08T11:47:44;102222.68;;;-1.25;44.00
64139;BME280;50435;43.700;-79.318;2023-04-08T11:50:17;102232.83;;;-0.26;43.46
64139;BME280;50435;43.700;-79.318;2023-04-08T11:52:49;102242.12;;;-0.79;43.67
64139;BME280;50435;43.700;-79.318;2023-04-08T11:55:25;102243.65;;;-0.13;43.31
64139;BME280;50435;43.700;-79.318;2023-04-08T11:57:55;102243.06;;;-0.60;43.06
64139;BME280;50435;43.700;-79.318;2023-04-08T12:00:23;102238.32;;;-1.52;42.00
64139;BME280;50435;43.700;-79.318;2023-04-08T12:02:50;102236.12;;;-0.35;41.70
64139;BME280;50435;43.700;-79.318;2023-04-08T12:05:18;102233.29;;;0.35;41.48
64139;BME280;50435;43.700;-79.318;2023-04-08T12:07:46;102235.17;;;-0.20;41.29
64139;BME280;50435;43.700;-79.318;2023-04-08T12:10:14;102240.59;;;0.82;41.67
64139;BME280;50435;43.700;-79.318;2023-04-08T12:12:41;102245.64;;;0.24;41.63
64139;BME280;50435;43.700;-79.318;2023-04-08T12:15:10;102248.21;;;0.25;42.81
64139;BME280;50435;43.700;-79.318;2023-04-08T12:17:37;102245.64;;;0.23;43.87
64139;BME280;50435;43.700;-79.318;2023-04-08T12:20:05;102247.82;;;-0.37;44.98
64139;BME280;50435;43.700;-79.318;2023-04-08T12:22:33;102254.62;;;0.52;43.74
64139;BME280;50435;43.700;-79.318;2023-04-08T12:25:00;102255.92;;;0.20;42.63
64139;BME280;50435;43.700;-79.318;2023-04-08T12:27:27;102258.49;;;0.93;41.95
64139;BME280;50435;43.700;-79.318;2023-04-08T12:29:55;102262.62;;;0.40;41.68
64139;BME280;50435;43.700;-79.318;2023-04-08T12:32:22;102258.96;;;0.82;41.23
64139;BME280;50435;43.700;-79.318;2023-04-08T12:34:50;102255.98;;;0.38;40.81
64139;BME280;50435;43.700;-79.318;2023-04-08T12:37:17;102257.07;;;0.63;41.28
64139;BME280;50435;43.700;-79.318;2023-04-08T12:39:46;102253.68;;;0.73;41.72
64139;BME280;50435;43.700;-79.318;2023-04-08T12:42:14;102253.44;;;0.44;42.12
64139;BME280;50435;43.700;-79.318;2023-04-08T12:44:41;102247.64;;;0.83;42.21